KCMY/CMY METAR and TAF weather

Enter ICAO airport designator
Station Type Date Time Source
KCMY METAR 2019/06/26 16:55 UTC NOAA

KCMY 261655Z AUTO 27008KT 250V310 10SM CLR 27/14 A3006 RMK AO2 T02660135


Station Type Date Time Source
KCMY Decoded METAR 2019/06/26 16:55 UTC NOAA

Sparta, Sparta / Fort McCoy Airport, WI, United States (KCMY) 43-57-30N 090-44-16W
Jun 26, 2019 - 12:55 PM EDT / 2019.06.26 1655 UTC
Wind: from the W (270 degrees) at 9 MPH (8 KT) (direction variable):0
Visibility: 10 mile(s):0
Sky conditions: clear
Temperature: 79.9 F (26.6 C)
Dew Point: 56.3 F (13.5 C)
Relative Humidity: 44%
Pressure (altimeter): 30.06 in. Hg (1017 hPa)
ob: KCMY 261655Z AUTO 27008KT 250V310 10SM CLR 27/14 A3006 RMK AO2 T02660135
cycle: 17

Station Type Date Time Source
KCMY TAF UTC NOAA

Error!

Example: see airport list